ADDS METAR Data INFO
IDs: Format: Raw Decoded Include TAF

Data at: 0649 UTC 18 Feb 2018

METAR for:LFAQ (Albert/Picardie Arpt, --, FR)
Text:No data found

TAF for:LFAQ (Albert/Picardie Arpt, --, FR) issued at 0500 UTC 18 Feb 2018
Text:TAF LFAQ 180500Z 1806/1815 13005KT 3000 BR NSC
Forecast period:0600 to 1000 UTC 18 February 2018
Forecast type:FROM: standard forecast or significant change
Winds:from the SE (130 degrees) at 6 MPH (5 knots; 2.6 m/s)
Visibility: 1.86 sm ( 2.99 km)
Clouds:missing
Weather:BR (mist)
Text:PROB40 1806/1810 0400 FZFG VV///
Forecast period:0600 to 1000 UTC 18 February 2018
Forecast type:PROBABLE: 40 percent likelihood of the following during this time
Visibility: 0.25 sm ( 0.40 km)
Clouds:missing
Weather:FZFG (freezing fog)
Text:BECMG 1810/1812 9999 NSW
Forecast period:1000 to 1500 UTC 18 February 2018
Forecast type:BECOMING: Conditions expected to become as follows by 1200 UTC 18 February 2018
Winds:from the SE (130 degrees) at 6 MPH (5 knots; 2.6 m/s)
Visibility:6 or more sm (10+ km)
Clouds:missing
Weather:NSW (no significant weather)